createdAt,value
2022-12-27T00:01:19.428Z,2.08
2022-12-27T00:03:46.976Z,6.20
2022-12-27T00:06:18.620Z,1.67
2022-12-27T00:08:47.026Z,2.65
2022-12-27T00:11:17.490Z,7.43
2022-12-27T00:13:44.910Z,5.78
2022-12-27T00:16:17.566Z,8.80
2022-12-27T00:18:45.996Z,3.00
2022-12-27T00:21:14.339Z,4.13
2022-12-27T00:23:44.022Z,1.27
2022-12-27T00:26:14.320Z,4.47
2022-12-27T00:28:42.139Z,2.00
2022-12-27T00:31:10.007Z,1.90
2022-12-27T00:33:39.063Z,2.00
2022-12-27T00:36:08.786Z,5.40
2022-12-27T00:38:36.204Z,4.00
2022-12-27T00:41:04.513Z,4.10
2022-12-27T00:43:32.071Z,7.72
2022-12-27T00:45:59.360Z,6.30
2022-12-27T00:48:26.697Z,7.63
2022-12-27T00:51:03.032Z,9.05
2022-12-27T00:53:31.042Z,5.10
2022-12-27T00:55:58.904Z,8.02
2022-12-27T00:58:26.435Z,5.00
2022-12-27T01:00:53.760Z,3.88
2022-12-27T01:03:21.278Z,4.45
2022-12-27T01:05:48.643Z,3.80
2022-12-27T01:08:15.914Z,5.55
2022-12-27T01:10:43.169Z,3.50
2022-12-27T01:13:10.419Z,6.28
2022-12-27T01:15:40.990Z,4.50
2022-12-27T01:18:08.206Z,7.30
2022-12-27T01:20:38.507Z,4.93
2022-12-27T01:23:05.697Z,4.03
2022-12-27T01:25:32.937Z,3.00
2022-12-27T01:28:00.112Z,3.28
2022-12-27T01:30:27.353Z,4.05
2022-12-27T01:32:54.631Z,4.68
2022-12-27T01:35:22.027Z,6.95
2022-12-27T01:37:49.307Z,4.90
2022-12-27T01:40:16.547Z,4.75
2022-12-27T01:42:52.879Z,3.30
2022-12-27T01:45:25.841Z,6.38
2022-12-27T01:48:07.304Z,6.18
2022-12-27T01:50:40.233Z,3.80
2022-12-27T01:53:10.620Z,2.03
2022-12-27T01:55:56.249Z,10.35
2022-12-27T01:58:47.805Z,5.40
2022-12-27T02:01:29.404Z,2.40
2022-12-27T02:04:10.760Z,2.63
2022-12-27T02:06:39.414Z,2.65
2022-12-27T02:09:14.048Z,6.88
2022-12-27T02:11:51.454Z,4.07
2022-12-27T02:14:28.047Z,5.47
2022-12-27T02:17:03.044Z,4.50
2022-12-27T02:19:42.709Z,0.88
2022-12-27T02:23:04.561Z,4.03
2022-12-27T02:25:40.357Z,5.15
2022-12-27T02:28:44.285Z,2.15
2022-12-27T02:31:37.777Z,4.18
2022-12-27T02:34:17.043Z,2.88
2022-12-27T02:36:46.480Z,0.90
2022-12-27T02:39:16.777Z,3.17
2022-12-27T02:42:04.267Z,2.95
2022-12-27T02:44:50.442Z,4.47
2022-12-27T02:47:41.218Z,3.13
2022-12-27T02:50:29.842Z,2.65
2022-12-27T02:53:09.496Z,1.85
2022-12-27T02:56:34.499Z,4.03
2022-12-27T02:59:19.881Z,1.25
2022-12-27T03:02:46.675Z,0.75
2022-12-27T03:05:27.349Z,3.65
2022-12-27T03:08:25.750Z,2.10
2022-12-27T03:11:17.806Z,2.28
2022-12-27T03:14:12.924Z,1.30
2022-12-27T03:19:55.543Z,6.97
2022-12-27T03:22:45.235Z,1.80
2022-12-27T03:25:29.259Z,2.25
2022-12-27T03:28:34.548Z,1.85
2022-12-27T03:31:27.542Z,4.30
2022-12-27T03:34:04.715Z,6.50
2022-12-27T03:36:52.626Z,3.92
2022-12-27T03:39:37.286Z,1.25
2022-12-27T03:42:28.767Z,2.15
2022-12-27T03:44:56.423Z,2.10
2022-12-27T03:47:32.068Z,4.32
2022-12-27T03:50:08.163Z,2.17
2022-12-27T03:52:42.443Z,2.38
2022-12-27T03:55:11.310Z,3.20
2022-12-27T03:57:39.266Z,4.57
2022-12-27T04:00:07.801Z,2.35
2022-12-27T04:02:40.908Z,3.28
2022-12-27T04:05:08.812Z,6.13
2022-12-27T04:07:36.011Z,1.40
2022-12-27T04:10:22.320Z,5.05
2022-12-27T04:13:07.969Z,0.90
2022-12-27T04:15:53.999Z,1.38
2022-12-27T04:18:39.632Z,0.68
2022-12-27T04:21:25.354Z,2.42
2022-12-27T04:24:10.824Z,0.52
2022-12-27T04:26:56.712Z,1.10
2022-12-27T04:29:42.581Z,1.85
2022-12-27T04:32:28.198Z,1.75
2022-12-27T04:34:55.311Z,1.67
2022-12-27T04:37:22.526Z,3.35
2022-12-27T04:40:07.975Z,2.67
2022-12-27T04:42:54.274Z,1.63
2022-12-27T04:45:40.520Z,2.13
2022-12-27T04:48:31.829Z,1.27
2022-12-27T04:51:18.368Z,1.20
2022-12-27T04:54:11.720Z,2.50
2022-12-27T04:56:38.858Z,1.10
2022-12-27T04:59:24.606Z,1.92
2022-12-27T05:02:03.853Z,3.20
2022-12-27T05:04:37.359Z,3.13
2022-12-27T05:07:25.964Z,6.28
2022-12-27T05:10:11.745Z,1.33
2022-12-27T05:12:57.633Z,2.35
2022-12-27T05:15:24.899Z,2.70
2022-12-27T05:17:52.126Z,1.02
2022-12-27T05:20:19.393Z,3.22
2022-12-27T05:23:05.109Z,3.13
2022-12-27T05:25:35.238Z,2.67
2022-12-27T05:28:03.917Z,2.92
2022-12-27T05:30:34.529Z,1.90
2022-12-27T05:33:02.524Z,2.88
2022-12-27T05:35:30.321Z,1.95
2022-12-27T05:37:57.747Z,3.00
2022-12-27T05:40:25.625Z,5.15
2022-12-27T05:42:53.530Z,3.63
2022-12-27T05:45:21.495Z,5.35
2022-12-27T05:47:48.833Z,1.13
2022-12-27T05:50:17.228Z,0.85
2022-12-27T05:52:44.434Z,3.13
2022-12-27T05:55:12.824Z,1.73
2022-12-27T05:57:40.060Z,1.15
2022-12-27T06:00:08.110Z,4.47
2022-12-27T06:02:42.734Z,3.50
2022-12-27T06:05:10.856Z,3.05
2022-12-27T06:07:39.344Z,4.00
2022-12-27T06:10:09.281Z,1.67
2022-12-27T06:12:36.620Z,1.60
2022-12-27T06:15:05.974Z,7.65
2022-12-27T06:17:34.521Z,2.70
2022-12-27T06:20:01.716Z,2.08
2022-12-27T06:22:28.947Z,4.78
2022-12-27T06:24:56.271Z,3.08
2022-12-27T06:27:23.556Z,2.83
2022-12-27T06:29:50.791Z,6.53
2022-12-27T06:32:18.301Z,1.15
2022-12-27T06:34:45.685Z,3.40
2022-12-27T06:37:13.017Z,4.55
2022-12-27T06:39:40.288Z,4.10
2022-12-27T06:42:07.504Z,5.25
2022-12-27T06:44:34.754Z,4.10
2022-12-27T06:47:02.762Z,3.35
2022-12-27T06:49:30.060Z,1.58
2022-12-27T06:51:59.746Z,1.27
2022-12-27T06:54:27.710Z,3.42
2022-12-27T06:56:56.901Z,2.30
2022-12-27T06:59:24.516Z,2.55
2022-12-27T07:01:51.868Z,4.13
2022-12-27T07:04:19.253Z,8.63
2022-12-27T07:06:46.476Z,12.57
2022-12-27T07:09:13.670Z,4.47
2022-12-27T07:11:41.000Z,3.80
2022-12-27T07:14:10.031Z,7.90
2022-12-27T07:16:37.732Z,8.85
2022-12-27T07:19:05.055Z,1.73
2022-12-27T07:21:32.301Z,4.63
2022-12-27T07:23:59.621Z,3.15
2022-12-27T07:26:30.286Z,6.00
2022-12-27T07:29:00.597Z,12.73
2022-12-27T07:31:31.432Z,2.15
2022-12-27T07:34:00.402Z,6.18
2022-12-27T07:36:35.454Z,6.22
2022-12-27T07:39:02.935Z,8.85
2022-12-27T07:41:30.116Z,9.65
2022-12-27T07:43:57.500Z,10.73
2022-12-27T07:46:26.834Z,8.15
2022-12-27T07:48:55.626Z,7.32
2022-12-27T07:51:24.072Z,6.03
2022-12-27T07:53:52.448Z,6.68
2022-12-27T07:56:26.111Z,8.55
2022-12-27T08:01:23.728Z,8.80
2022-12-27T08:03:51.460Z,14.15
2022-12-27T08:06:29.035Z,2.42
2022-12-27T08:08:58.460Z,6.35
2022-12-27T08:11:28.299Z,4.97
2022-12-27T08:13:55.761Z,9.55
2022-12-27T08:16:25.176Z,4.82
2022-12-27T08:18:53.265Z,10.18
2022-12-27T08:21:20.752Z,5.78
2022-12-27T08:23:48.186Z,4.43
2022-12-27T08:26:16.126Z,9.13
2022-12-27T08:28:43.396Z,4.88
2022-12-27T08:31:11.885Z,8.32
2022-12-27T08:33:41.516Z,8.68
2022-12-27T08:36:36.832Z,6.28
2022-12-27T08:38:58.836Z,5.07
2022-12-27T08:41:26.123Z,5.85
2022-12-27T08:43:53.344Z,4.50
2022-12-27T08:46:20.711Z,8.82
2022-12-27T08:48:49.001Z,3.83
2022-12-27T08:51:24.844Z,9.15
2022-12-27T08:53:57.826Z,4.40
2022-12-27T08:56:25.554Z,8.27
2022-12-27T08:58:53.110Z,5.40
2022-12-27T09:01:20.485Z,5.43
2022-12-27T09:03:47.882Z,2.03
2022-12-27T09:06:17.839Z,3.00
2022-12-27T09:08:46.807Z,10.68
2022-12-27T09:11:15.378Z,8.52
2022-12-27T09:13:42.811Z,11.23
2022-12-27T09:16:12.677Z,2.08
2022-12-27T09:18:41.370Z,13.60
2022-12-27T09:21:12.521Z,4.65
2022-12-27T09:23:41.592Z,5.47
2022-12-27T09:26:14.120Z,6.57
2022-12-27T09:28:42.489Z,2.85
2022-12-27T09:31:11.758Z,6.85
2022-12-27T09:33:39.531Z,5.35
2022-12-27T09:36:10.177Z,5.78
2022-12-27T09:38:38.436Z,4.63
2022-12-27T09:41:19.273Z,13.00
2022-12-27T09:44:02.656Z,7.50
2022-12-27T09:47:13.979Z,7.68
2022-12-27T09:49:49.374Z,5.05
2022-12-27T09:52:21.186Z,3.20
2022-12-27T09:55:04.808Z,11.93
2022-12-27T09:57:44.382Z,5.32
2022-12-27T10:00:32.802Z,7.22
2022-12-27T10:03:06.000Z,11.50
2022-12-27T10:05:36.573Z,6.13
2022-12-27T10:08:13.499Z,11.05
2022-12-27T10:10:49.969Z,11.35
2022-12-27T10:13:53.904Z,6.47
2022-12-27T10:16:30.000Z,9.27
2022-12-27T10:19:16.586Z,3.15
2022-12-27T10:21:53.586Z,3.88
2022-12-27T10:24:39.562Z,6.13
2022-12-27T10:27:23.330Z,8.25
2022-12-27T10:29:54.521Z,6.43
2022-12-27T10:32:22.552Z,11.10
2022-12-27T10:35:02.111Z,6.30
2022-12-27T10:37:30.111Z,8.65
2022-12-27T10:40:34.632Z,6.50
2022-12-27T10:43:06.705Z,12.18
2022-12-27T10:45:39.276Z,9.05
2022-12-27T10:48:14.294Z,5.07
2022-12-27T10:51:11.516Z,10.27
2022-12-27T10:53:47.196Z,4.75
2022-12-27T10:56:34.735Z,12.20
2022-12-27T10:59:18.413Z,7.00
2022-12-27T11:02:15.923Z,6.60
2022-12-27T11:04:58.575Z,7.45
2022-12-27T11:07:31.753Z,5.35
2022-12-27T11:10:18.928Z,9.27
2022-12-27T11:13:06.611Z,4.95
2022-12-27T11:15:39.006Z,5.20
2022-12-27T11:18:21.060Z,12.25
2022-12-27T11:20:56.058Z,5.57
2022-12-27T11:23:25.691Z,7.15
2022-12-27T11:26:01.843Z,10.80
2022-12-27T11:28:42.579Z,8.10
2022-12-27T11:31:19.155Z,15.18
2022-12-27T11:33:55.713Z,10.40
2022-12-27T11:36:27.818Z,12.23
2022-12-27T11:38:55.701Z,3.90
2022-12-27T11:41:38.121Z,7.63
2022-12-27T11:44:08.339Z,10.45
2022-12-27T11:46:58.625Z,8.70
2022-12-27T11:49:35.035Z,11.02
2022-12-27T11:52:33.986Z,9.02
2022-12-27T11:55:17.642Z,7.80
2022-12-27T11:57:56.874Z,7.18
2022-12-27T12:00:27.285Z,9.63
2022-12-27T12:03:21.727Z,8.35
2022-12-27T12:05:55.019Z,5.82
2022-12-27T12:08:47.216Z,9.05
2022-12-27T12:11:39.977Z,15.45
2022-12-27T12:14:28.572Z,10.65
2022-12-27T12:17:23.591Z,7.72
2022-12-27T12:20:22.884Z,8.30
2022-12-27T12:22:56.389Z,8.45
2022-12-27T12:25:57.411Z,13.00
2022-12-27T12:29:00.111Z,5.97
2022-12-27T12:31:42.807Z,9.05
2022-12-27T12:34:28.935Z,11.57
2022-12-27T12:37:04.940Z,10.20
2022-12-27T12:39:43.871Z,10.27
2022-12-27T12:42:22.988Z,13.48
2022-12-27T12:45:05.235Z,6.93
2022-12-27T12:47:49.746Z,9.65
2022-12-27T12:50:41.087Z,6.35
2022-12-27T12:53:08.275Z,11.63
2022-12-27T12:56:09.619Z,12.23
2022-12-27T12:58:50.979Z,9.57
2022-12-27T13:01:50.470Z,6.50
2022-12-27T13:04:45.998Z,13.82
2022-12-27T13:07:27.084Z,5.50
2022-12-27T13:10:10.134Z,6.32
2022-12-27T13:12:52.304Z,8.13
2022-12-27T13:15:47.923Z,7.05
2022-12-27T13:18:30.692Z,14.70
2022-12-27T13:21:25.762Z,6.20
2022-12-27T13:24:14.473Z,8.02
2022-12-27T13:26:52.604Z,14.98
2022-12-27T13:29:22.634Z,14.10
2022-12-27T13:32:10.123Z,10.70
2022-12-27T13:34:53.811Z,15.43
2022-12-27T13:37:40.205Z,17.13
2022-12-27T13:40:37.219Z,4.55
2022-12-27T13:43:51.187Z,9.27
2022-12-27T13:46:44.636Z,12.00
2022-12-27T13:49:36.813Z,7.25
2022-12-27T13:52:18.706Z,12.38
2022-12-27T13:55:10.477Z,18.58
2022-12-27T13:58:08.870Z,14.63
2022-12-27T14:00:45.712Z,12.00
2022-12-27T14:03:15.941Z,12.18
2022-12-27T14:05:58.052Z,15.80
2022-12-27T14:09:04.546Z,21.45
2022-12-27T14:11:43.645Z,10.73
2022-12-27T14:14:16.091Z,15.52
2022-12-27T14:16:43.280Z,7.45
2022-12-27T14:19:24.048Z,10.13
2022-12-27T14:22:08.292Z,14.73
2022-12-27T14:25:33.654Z,10.80
2022-12-27T14:28:18.814Z,4.03
2022-12-27T14:31:21.029Z,10.63
2022-12-27T14:34:25.303Z,14.00
2022-12-27T14:37:12.143Z,8.82
2022-12-27T14:40:16.774Z,13.23
2022-12-27T14:43:19.347Z,19.92
2022-12-27T14:46:10.527Z,9.82
2022-12-27T14:48:46.739Z,9.20
2022-12-27T14:54:56.169Z,17.95
2022-12-27T14:57:45.716Z,13.00
2022-12-27T15:00:17.506Z,18.75
2022-12-27T15:02:59.818Z,15.68
2022-12-27T15:05:48.456Z,19.30
2022-12-27T15:08:38.516Z,12.52
2022-12-27T15:11:53.211Z,15.70
2022-12-27T15:14:29.348Z,14.57
2022-12-27T15:17:18.520Z,12.88
2022-12-27T15:20:09.865Z,17.17
2022-12-27T15:22:39.836Z,9.95
2022-12-27T15:25:31.921Z,9.90
2022-12-27T15:28:18.225Z,11.45
2022-12-27T15:31:00.401Z,10.10
2022-12-27T15:33:57.503Z,8.18
2022-12-27T15:36:39.033Z,13.98
2022-12-27T15:39:26.725Z,20.13
2022-12-27T15:42:02.136Z,13.30
2022-12-27T15:45:03.474Z,15.38
2022-12-27T15:47:37.812Z,10.55
2022-12-27T15:50:29.984Z,10.70
2022-12-27T15:53:09.061Z,7.72
2022-12-27T15:55:57.831Z,13.45
2022-12-27T15:58:26.358Z,10.77
2022-12-27T16:01:25.675Z,9.45
2022-12-27T16:03:55.079Z,11.18
2022-12-27T16:06:34.170Z,15.65
2022-12-27T16:09:35.095Z,12.43
2022-12-27T16:12:04.593Z,12.45
2022-12-27T16:14:36.063Z,12.48
2022-12-27T16:17:31.412Z,12.77
2022-12-27T16:20:08.616Z,18.67
2022-12-27T16:23:05.032Z,27.58
2022-12-27T16:25:36.267Z,11.80
2022-12-27T16:28:06.310Z,13.25
2022-12-27T16:30:48.978Z,8.27
2022-12-27T16:33:31.867Z,11.30
2022-12-27T16:36:15.295Z,17.35
2022-12-27T16:38:46.012Z,14.55
2022-12-27T16:41:28.547Z,12.45
2022-12-27T16:44:01.639Z,13.45
2022-12-27T16:46:48.075Z,18.13
2022-12-27T16:49:26.091Z,19.63
2022-12-27T16:52:15.123Z,10.40
2022-12-27T16:54:42.456Z,16.73
2022-12-27T16:57:41.119Z,21.35
2022-12-27T17:00:11.411Z,19.73
2022-12-27T17:02:39.470Z,22.27
2022-12-27T17:05:33.536Z,19.30
2022-12-27T17:08:01.151Z,14.98
2022-12-27T17:10:28.322Z,17.42
2022-12-27T17:13:03.123Z,14.27
2022-12-27T17:15:31.838Z,14.25
2022-12-27T17:18:09.355Z,18.52
2022-12-27T17:20:38.148Z,23.15
2022-12-27T17:23:05.601Z,17.65
2022-12-27T17:26:02.827Z,23.77
2022-12-27T17:28:41.165Z,13.18
2022-12-27T17:31:21.612Z,20.13
2022-12-27T17:34:02.473Z,21.02
2022-12-27T17:36:54.249Z,19.35
2022-12-27T17:39:42.019Z,10.88
2022-12-27T17:42:38.125Z,11.43
2022-12-27T17:45:15.317Z,10.23
2022-12-27T17:48:01.330Z,16.23
2022-12-27T17:50:29.446Z,14.48
2022-12-27T17:53:29.499Z,7.53
2022-12-27T17:56:20.888Z,16.05
2022-12-27T17:58:48.251Z,13.18
2022-12-27T18:01:15.673Z,16.35
2022-12-27T18:03:47.229Z,18.05
2022-12-27T18:06:19.788Z,15.35
2022-12-27T18:08:50.663Z,10.80
2022-12-27T18:11:23.471Z,20.15
2022-12-27T18:13:56.778Z,15.02
2022-12-27T18:16:32.502Z,9.50
2022-12-27T18:19:00.806Z,10.13
2022-12-27T18:21:29.993Z,18.45
2022-12-27T18:23:57.464Z,13.38
2022-12-27T18:26:38.404Z,15.90
2022-12-27T18:29:06.124Z,14.35
2022-12-27T18:31:33.860Z,10.48
2022-12-27T18:34:08.363Z,12.10
2022-12-27T18:36:58.776Z,12.23
2022-12-27T18:39:30.916Z,9.43
2022-12-27T18:42:00.577Z,11.95
2022-12-27T18:44:32.368Z,8.15
2022-12-27T18:47:04.314Z,6.68
2022-12-27T18:49:37.147Z,11.98
2022-12-27T18:52:19.937Z,6.10
2022-12-27T18:54:47.200Z,14.52
2022-12-27T18:57:33.861Z,6.22
2022-12-27T19:00:05.441Z,12.35
2022-12-27T19:02:35.954Z,9.60
2022-12-27T19:05:21.847Z,5.80
2022-12-27T19:08:12.277Z,8.70
2022-12-27T19:10:48.003Z,7.93
2022-12-27T19:13:28.585Z,5.70
2022-12-27T19:15:57.154Z,6.55
2022-12-27T19:18:31.178Z,9.63
2022-12-27T19:21:04.067Z,9.30
2022-12-27T19:23:37.371Z,14.82
2022-12-27T19:26:32.210Z,8.23
2022-12-27T19:29:08.539Z,8.73
2022-12-27T19:31:38.248Z,14.25
2022-12-27T19:34:13.601Z,11.65
2022-12-27T19:36:44.229Z,32.88
2022-12-27T19:39:30.212Z,25.52
2022-12-27T19:42:01.785Z,19.63
2022-12-27T19:44:29.708Z,13.35
2022-12-27T19:46:56.896Z,7.60
2022-12-27T19:52:23.545Z,8.80
2022-12-27T19:54:53.095Z,13.73
2022-12-27T19:57:22.226Z,10.95
2022-12-27T19:59:49.464Z,12.90
2022-12-27T20:02:18.466Z,15.63
2022-12-27T20:04:45.855Z,64.57
2022-12-27T20:07:20.368Z,17.05
2022-12-27T20:12:14.833Z,44.28
2022-12-27T20:14:41.999Z,15.70
2022-12-27T20:17:09.173Z,18.80
2022-12-27T20:19:36.313Z,11.15
2022-12-27T20:22:03.573Z,14.20
2022-12-27T20:24:31.699Z,9.70
2022-12-27T20:26:59.498Z,6.88
2022-12-27T20:29:27.638Z,9.63
2022-12-27T20:31:57.086Z,20.83
2022-12-27T20:34:24.294Z,7.18
2022-12-27T20:36:55.108Z,14.75
2022-12-27T20:39:22.387Z,17.17
2022-12-27T20:41:49.593Z,10.98
2022-12-27T20:44:16.875Z,12.32
2022-12-27T20:46:44.159Z,11.23
2022-12-27T20:49:11.370Z,17.63
2022-12-27T20:51:38.781Z,12.73
2022-12-27T20:54:06.364Z,21.25
2022-12-27T20:56:35.283Z,20.80
2022-12-27T20:59:02.733Z,17.92
2022-12-27T21:01:30.008Z,15.43
2022-12-27T21:03:57.490Z,6.43
2022-12-27T21:06:27.753Z,7.53
2022-12-27T21:08:57.830Z,10.35
2022-12-27T21:11:33.523Z,6.55
2022-12-27T21:14:02.563Z,9.27
2022-12-27T21:16:32.027Z,6.50
2022-12-27T21:19:03.564Z,5.50
2022-12-27T21:21:32.467Z,26.27
2022-12-27T21:24:00.376Z,11.80
2022-12-27T21:26:30.379Z,10.30
2022-12-27T21:28:59.158Z,8.52
2022-12-27T21:31:27.569Z,5.55
2022-12-27T21:33:54.807Z,11.07
2022-12-27T21:36:24.614Z,11.77
2022-12-27T21:38:52.285Z,9.43
2022-12-27T21:41:25.075Z,9.38
2022-12-27T21:43:52.866Z,8.65
2022-12-27T21:46:23.821Z,10.63
2022-12-27T21:48:56.537Z,4.22
2022-12-27T21:51:24.498Z,6.43
2022-12-27T21:53:52.139Z,6.03
2022-12-27T21:56:20.052Z,5.50
2022-12-27T21:58:47.376Z,6.00
2022-12-27T22:01:25.781Z,5.00
2022-12-27T22:03:54.901Z,7.90
2022-12-27T22:06:26.687Z,5.00
2022-12-27T22:08:57.103Z,8.88
2022-12-27T22:11:25.808Z,7.00
2022-12-27T22:13:53.143Z,8.85
2022-12-27T22:16:23.215Z,4.50
2022-12-27T22:18:50.892Z,3.45
2022-12-27T22:21:20.897Z,5.47
2022-12-27T22:23:50.162Z,6.07
2022-12-27T22:26:20.815Z,8.18
2022-12-27T22:28:48.570Z,4.88
2022-12-27T22:31:30.359Z,3.95
2022-12-27T22:33:57.901Z,3.45
2022-12-27T22:36:26.600Z,3.53
2022-12-27T22:38:58.952Z,5.82
2022-12-27T22:41:32.004Z,1.55
2022-12-27T22:44:02.894Z,5.85
2022-12-27T22:46:51.078Z,2.75
2022-12-27T22:49:18.522Z,1.77
2022-12-27T22:51:45.786Z,3.28
2022-12-27T22:54:13.176Z,1.17
2022-12-27T22:56:43.292Z,0.77
2022-12-27T22:59:13.326Z,2.42
2022-12-27T23:01:41.911Z,1.88
2022-12-27T23:04:12.333Z,3.22
2022-12-27T23:06:40.527Z,2.05
2022-12-27T23:09:08.470Z,1.77
2022-12-27T23:11:40.813Z,1.13
2022-12-27T23:14:16.100Z,2.20
2022-12-27T23:16:49.216Z,2.00
2022-12-27T23:19:24.214Z,0.45
2022-12-27T23:21:51.503Z,6.03
2022-12-27T23:24:18.658Z,2.55
2022-12-27T23:26:45.838Z,1.45
2022-12-27T23:29:14.486Z,3.72
2022-12-27T23:31:54.859Z,4.75
2022-12-27T23:34:28.828Z,0.20
2022-12-27T23:37:00.309Z,1.88
2022-12-27T23:39:28.655Z,0.20
2022-12-27T23:41:56.268Z,0.40
2022-12-27T23:44:33.854Z,3.38
2022-12-27T23:47:04.090Z,1.48
2022-12-27T23:49:31.334Z,0.93
2022-12-27T23:51:58.524Z,0.40
2022-12-27T23:54:25.828Z,0.17
2022-12-27T23:56:53.010Z,0.55
2022-12-27T23:59:20.297Z,2.35
